Terminal Aerodrome Forecast
Issued by NWS

Home | Current Version | Previous Version | Graphics & Text | Print | Product List | Glossary On
Versions: 1 2 3 4 5 6 7 8 9 10 11 12 13 14 15 16 17 18 19 20 21
087
FTUS43 KICT 240708 AAA
TAFSLN
TAF AMD
KSLN 240708Z 2407/2506 17009KT P6SM VCSH SCT080 BKN250
     FM241400 23007KT P6SM SCT250
     FM242200 36008KT P6SM VCTS SCT080CB BKN200
     FM250400 06007KT P6SM SCT150=

USA.gov is the U.S. government's official web portal to all federal, state and local government web resources and services.